createdAt,value
2019-04-11T00:01:02.260Z,12.15
2019-04-11T00:03:33.456Z,12.53
2019-04-11T00:06:03.689Z,11.48
2019-04-11T00:08:34.147Z,11.05
2019-04-11T00:11:05.919Z,11.65
2019-04-11T00:13:41.804Z,11.85
2019-04-11T00:16:13.110Z,12.20
2019-04-11T00:18:45.011Z,12.53
2019-04-11T00:21:16.987Z,13.15
2019-04-11T00:23:48.234Z,11.53
2019-04-11T00:26:18.440Z,13.03
2019-04-11T00:28:48.564Z,13.75
2019-04-11T00:31:19.617Z,12.40
2019-04-11T00:33:52.752Z,12.70
2019-04-11T00:36:25.868Z,12.78
2019-04-11T00:38:55.940Z,13.15
2019-04-11T00:41:26.059Z,12.75
2019-04-11T00:43:56.710Z,13.55
2019-04-11T00:46:26.808Z,14.33
2019-04-11T00:48:59.811Z,12.75
2019-04-11T00:51:29.917Z,12.35
2019-04-11T00:54:00.939Z,12.58
2019-04-11T00:56:31.029Z,12.18
2019-04-11T00:59:02.364Z,13.65
2019-04-11T01:01:33.710Z,12.63
2019-04-11T01:04:03.808Z,11.40
2019-04-11T01:06:34.904Z,11.65
2019-04-11T01:09:08.275Z,11.78
2019-04-11T01:11:40.387Z,11.88
2019-04-11T01:14:10.480Z,12.98
2019-04-11T01:16:43.025Z,12.60
2019-04-11T01:19:14.190Z,12.75
2019-04-11T01:21:45.507Z,14.00
2019-04-11T01:24:15.720Z,13.53
2019-04-11T01:26:45.776Z,13.75
2019-04-11T01:29:18.064Z,13.15
2019-04-11T01:31:49.836Z,13.40
2019-04-11T01:34:22.774Z,14.25
2019-04-11T01:36:53.812Z,12.95
2019-04-11T01:39:41.225Z,13.65
2019-04-11T01:42:13.219Z,14.10
2019-04-11T01:44:46.002Z,13.55
2019-04-11T01:47:21.282Z,13.48
2019-04-11T01:49:53.288Z,12.13
2019-04-11T01:52:24.465Z,13.22
2019-04-11T01:54:54.548Z,15.00
2019-04-11T01:57:40.256Z,14.43
2019-04-11T02:00:14.248Z,13.32
2019-04-11T02:02:54.835Z,13.93
2019-04-11T02:05:29.657Z,14.35
2019-04-11T02:08:00.825Z,14.70
2019-04-11T02:10:32.835Z,13.80
2019-04-11T02:13:03.980Z,14.25
2019-04-11T02:15:34.544Z,14.78
2019-04-11T02:18:05.431Z,13.38
2019-04-11T02:20:36.814Z,14.15
2019-04-11T02:23:24.992Z,13.88
2019-04-11T02:25:56.720Z,14.20
2019-04-11T02:28:26.844Z,15.40
2019-04-11T02:30:57.601Z,13.62
2019-04-11T02:33:27.794Z,14.05
2019-04-11T02:35:58.107Z,13.60
2019-04-11T02:38:30.505Z,13.98
2019-04-11T02:41:01.215Z,14.80
2019-04-11T02:43:31.988Z,14.13
2019-04-11T02:46:11.717Z,14.80
2019-04-11T02:48:36.126Z,14.13
2019-04-11T02:51:07.840Z,16.35
2019-04-11T02:53:45.085Z,14.63
2019-04-11T02:56:17.388Z,15.03
2019-04-11T02:58:48.356Z,14.78
2019-04-11T03:01:20.155Z,14.70
2019-04-11T03:03:51.984Z,14.15
2019-04-11T03:06:31.035Z,15.25
2019-04-11T03:09:02.483Z,14.70
2019-04-11T03:11:34.682Z,16.20
2019-04-11T03:14:07.634Z,14.00
2019-04-11T03:16:53.648Z,14.47
2019-04-11T03:19:28.532Z,13.53
2019-04-11T03:21:46.405Z,15.35
2019-04-11T03:24:17.685Z,15.88
2019-04-11T03:26:49.736Z,15.90
2019-04-11T03:29:20.388Z,15.13
2019-04-11T03:32:32.171Z,17.27
2019-04-11T03:35:12.165Z,13.72
2019-04-11T03:39:52.906Z,16.27
2019-04-11T03:42:16.921Z,16.10
2019-04-11T03:44:39.459Z,15.75
2019-04-11T03:47:18.195Z,15.98
2019-04-11T03:49:49.121Z,15.78
2019-04-11T03:52:12.751Z,17.12
2019-04-11T03:54:43.022Z,16.77
2019-04-11T03:57:13.530Z,15.70
2019-04-11T03:59:45.813Z,17.70
2019-04-11T04:02:22.516Z,17.17
2019-04-11T04:04:57.254Z,17.55
2019-04-11T04:07:27.787Z,14.95
2019-04-11T04:10:06.978Z,16.42
2019-04-11T04:12:37.815Z,14.90
2019-04-11T04:15:37.591Z,16.80
2019-04-11T04:17:55.198Z,15.85
2019-04-11T04:20:28.879Z,15.32
2019-04-11T04:23:05.165Z,16.77
2019-04-11T04:25:36.835Z,15.70
2019-04-11T04:28:10.129Z,16.85
2019-04-11T04:30:41.093Z,15.28
2019-04-11T04:33:14.555Z,16.75
2019-04-11T04:35:47.642Z,17.00
2019-04-11T04:38:24.197Z,17.42
2019-04-11T04:41:13.583Z,16.05
2019-04-11T04:43:31.693Z,16.80
2019-04-11T04:46:20.390Z,16.30
2019-04-11T04:48:34.718Z,15.35
2019-04-11T04:51:08.960Z,17.15
2019-04-11T04:53:36.539Z,17.57
2019-04-11T04:56:16.726Z,16.48
2019-04-11T04:58:48.562Z,17.98
2019-04-11T05:01:21.736Z,18.10
2019-04-11T05:03:58.819Z,16.62
2019-04-11T05:06:36.495Z,17.12
2019-04-11T05:09:08.601Z,16.90
2019-04-11T05:11:40.679Z,17.82
2019-04-11T05:14:12.432Z,18.32
2019-04-11T05:16:44.029Z,18.00
2019-04-11T05:19:14.974Z,16.45
2019-04-11T05:21:46.212Z,15.85
2019-04-11T05:24:16.678Z,15.18
2019-04-11T05:26:48.065Z,16.02
2019-04-11T05:29:19.548Z,16.65
2019-04-11T05:31:51.685Z,17.20
2019-04-11T05:34:23.901Z,17.80
2019-04-11T05:36:55.457Z,17.60
2019-04-11T05:39:27.678Z,15.28
2019-04-11T05:41:58.745Z,17.62
2019-04-11T05:44:29.145Z,16.70
2019-04-11T05:47:02.606Z,16.40
2019-04-11T05:49:37.305Z,17.50
2019-04-11T05:52:08.098Z,16.55
2019-04-11T05:54:48.996Z,17.37
2019-04-11T05:57:23.803Z,16.95
2019-04-11T05:59:56.570Z,17.25
2019-04-11T06:02:35.533Z,17.37
2019-04-11T06:05:09.033Z,15.75
2019-04-11T06:07:48.996Z,17.40
2019-04-11T06:10:28.355Z,16.32
2019-04-11T06:13:06.161Z,17.87
2019-04-11T06:15:49.700Z,16.52
2019-04-11T06:18:44.735Z,17.05
2019-04-11T06:21:20.217Z,15.65
2019-04-11T06:23:59.329Z,15.40
2019-04-11T06:26:45.604Z,16.30
2019-04-11T06:29:25.905Z,17.37
2019-04-11T06:31:52.300Z,16.50
2019-04-11T06:34:26.573Z,17.73
2019-04-11T06:37:01.448Z,16.55
2019-04-11T06:39:36.104Z,16.93
2019-04-11T06:42:10.936Z,14.80
2019-04-11T06:44:50.418Z,16.70
2019-04-11T06:47:38.997Z,17.90
2019-04-11T06:50:15.456Z,18.32
2019-04-11T06:52:46.836Z,16.85
2019-04-11T06:55:37.045Z,17.37
2019-04-11T06:58:21.471Z,15.40
2019-04-11T07:00:53.584Z,17.40
2019-04-11T07:03:27.632Z,16.42
2019-04-11T07:06:08.409Z,17.15
2019-04-11T07:09:01.591Z,15.80
2019-04-11T07:11:43.265Z,15.98
2019-04-11T07:14:29.161Z,16.23
2019-04-11T07:17:18.894Z,17.50
2019-04-11T07:20:05.186Z,17.20
2019-04-11T07:23:03.740Z,17.87
2019-04-11T07:25:39.548Z,15.98
2019-04-11T07:28:23.457Z,16.30
2019-04-11T07:31:08.189Z,18.02
2019-04-11T07:34:08.856Z,16.62
2019-04-11T07:36:48.272Z,19.17
2019-04-11T07:39:26.697Z,17.82
2019-04-11T07:42:18.265Z,15.98
2019-04-11T07:44:57.604Z,16.07
2019-04-11T07:47:46.050Z,18.02
2019-04-11T07:50:23.145Z,17.40
2019-04-11T07:53:03.117Z,17.80
2019-04-11T07:55:34.404Z,17.00
2019-04-11T07:58:17.720Z,17.25
2019-04-11T08:00:59.541Z,16.30
2019-04-11T08:03:40.081Z,18.48
2019-04-11T08:06:13.316Z,18.05
2019-04-11T08:08:51.418Z,17.05
2019-04-11T08:11:25.459Z,16.87
2019-04-11T08:14:18.206Z,18.05
2019-04-11T08:17:07.251Z,17.65
2019-04-11T08:19:44.819Z,16.82
2019-04-11T08:22:31.410Z,16.77
2019-04-11T08:25:15.382Z,17.67
2019-04-11T08:27:59.260Z,16.30
2019-04-11T08:30:25.257Z,16.20
2019-04-11T08:33:00.320Z,17.62
2019-04-11T08:35:33.157Z,17.90
2019-04-11T08:38:10.171Z,17.43
2019-04-11T08:40:58.884Z,17.17
2019-04-11T08:43:37.396Z,19.17
2019-04-11T08:46:10.932Z,18.13
2019-04-11T08:48:44.035Z,18.90
2019-04-11T08:51:19.561Z,18.53
2019-04-11T08:54:10.070Z,17.70
2019-04-11T08:56:43.159Z,18.53
2019-04-11T08:59:30.206Z,18.20
2019-04-11T09:02:00.470Z,17.17
2019-04-11T09:04:32.406Z,18.80
2019-04-11T09:07:03.280Z,16.63
2019-04-11T09:09:40.039Z,17.20
2019-04-11T09:12:14.854Z,18.33
2019-04-11T09:15:00.312Z,17.60
2019-04-11T09:17:32.961Z,19.10
2019-04-11T09:20:25.797Z,15.80
2019-04-11T09:22:57.549Z,17.03
2019-04-11T09:25:41.222Z,19.03
2019-04-11T09:28:15.597Z,19.37
2019-04-11T09:30:53.264Z,18.70
2019-04-11T09:33:41.450Z,17.37
2019-04-11T09:36:30.649Z,17.87
2019-04-11T09:39:06.622Z,16.70
2019-04-11T09:41:46.903Z,18.80
2019-04-11T09:44:18.629Z,18.43
2019-04-11T09:47:07.548Z,17.13
2019-04-11T09:49:40.254Z,17.20
2019-04-11T09:52:12.291Z,17.97
2019-04-11T09:54:54.954Z,17.60
2019-04-11T09:57:32.552Z,19.90
2019-04-11T10:00:16.454Z,17.73
2019-04-11T10:02:48.382Z,20.53
2019-04-11T10:05:22.238Z,18.63
2019-04-11T10:07:55.373Z,17.93
2019-04-11T10:10:33.203Z,19.97
2019-04-11T10:13:16.602Z,19.90
2019-04-11T10:16:04.962Z,18.37
2019-04-11T10:18:41.072Z,18.80
2019-04-11T10:21:15.198Z,18.27
2019-04-11T10:23:49.292Z,18.17
2019-04-11T10:26:20.373Z,19.27
2019-04-11T10:28:58.784Z,17.30
2019-04-11T10:31:30.643Z,18.63
2019-04-11T10:34:21.843Z,19.03
2019-04-11T10:36:53.756Z,19.10
2019-04-11T10:39:35.543Z,20.20
2019-04-11T10:42:10.616Z,19.47
2019-04-11T10:45:04.942Z,19.40
2019-04-11T10:47:38.734Z,18.83
2019-04-11T10:50:21.706Z,19.40
2019-04-11T10:52:55.114Z,20.00
2019-04-11T10:55:42.477Z,19.90
2019-04-11T10:58:20.789Z,20.07
2019-04-11T11:00:55.685Z,20.73
2019-04-11T11:03:29.061Z,19.90
2019-04-11T11:06:03.115Z,18.40
2019-04-11T11:08:37.648Z,19.60
2019-04-11T11:11:14.823Z,19.13
2019-04-11T11:14:02.545Z,20.23
2019-04-11T11:16:46.992Z,20.03
2019-04-11T11:19:45.691Z,20.50
2019-04-11T11:22:14.633Z,20.37
2019-04-11T11:24:52.451Z,19.37
2019-04-11T11:27:24.422Z,20.20
2019-04-11T11:30:13.359Z,21.87
2019-04-11T11:32:45.368Z,20.50
2019-04-11T11:35:17.177Z,22.07
2019-04-11T11:37:51.929Z,20.73
2019-04-11T11:40:25.917Z,21.13
2019-04-11T11:43:03.745Z,20.20
2019-04-11T11:45:47.915Z,20.77
2019-04-11T11:48:33.331Z,21.17
2019-04-11T11:51:05.488Z,21.10
2019-04-11T11:53:55.328Z,22.33
2019-04-11T11:56:26.337Z,21.60
2019-04-11T11:59:13.862Z,22.03
2019-04-11T12:01:50.935Z,20.57
2019-04-11T12:04:39.334Z,20.87
2019-04-11T12:07:16.785Z,21.40
2019-04-11T12:09:48.932Z,21.60
2019-04-11T12:12:23.865Z,20.47
2019-04-11T12:15:15.941Z,20.73
2019-04-11T12:17:55.969Z,19.80
2019-04-11T12:20:31.646Z,21.33
2019-04-11T12:23:04.641Z,19.90
2019-04-11T12:25:41.179Z,21.53
2019-04-11T12:28:15.644Z,21.63
2019-04-11T12:30:48.387Z,21.67
2019-04-11T12:33:35.365Z,22.50
2019-04-11T12:36:07.688Z,19.73
2019-04-11T12:38:55.973Z,21.27
2019-04-11T12:41:51.161Z,20.93
2019-04-11T12:44:26.716Z,21.57
2019-04-11T12:47:07.592Z,19.40
2019-04-11T12:49:37.588Z,20.47
2019-04-11T12:52:25.474Z,21.87
2019-04-11T12:55:04.148Z,21.37
2019-04-11T12:58:00.000Z,22.27
2019-04-11T13:00:47.590Z,20.93
2019-04-11T13:03:28.129Z,20.97
2019-04-11T13:06:22.482Z,20.20
2019-04-11T13:08:59.641Z,20.63
2019-04-11T13:11:31.430Z,19.60
2019-04-11T13:14:19.001Z,21.43
2019-04-11T13:17:10.265Z,20.67
2019-04-11T13:20:04.529Z,19.97
2019-04-11T13:22:35.785Z,19.17
2019-04-11T13:25:25.837Z,19.77
2019-04-11T13:27:57.564Z,19.53
2019-04-11T13:30:46.621Z,21.47
2019-04-11T13:33:19.281Z,20.87
2019-04-11T13:36:03.843Z,20.23
2019-04-11T13:38:36.505Z,18.70
2019-04-11T13:41:23.870Z,20.57
2019-04-11T13:43:55.354Z,19.20
2019-04-11T13:46:30.770Z,20.20
2019-04-11T13:49:05.175Z,19.80
2019-04-11T13:51:54.705Z,20.07
2019-04-11T13:54:40.624Z,19.80
2019-04-11T13:57:28.097Z,18.00
2019-04-11T14:00:15.806Z,19.00
2019-04-11T14:03:12.473Z,17.87
2019-04-11T14:05:50.609Z,18.27
2019-04-11T14:08:25.009Z,19.90
2019-04-11T14:11:02.386Z,18.40
2019-04-11T14:13:41.717Z,18.27
2019-04-11T14:16:20.161Z,18.87
2019-04-11T14:19:07.164Z,17.80
2019-04-11T14:21:37.381Z,17.63
2019-04-11T14:24:19.873Z,17.70
2019-04-11T14:27:01.285Z,17.90
2019-04-11T14:29:34.985Z,19.47
2019-04-11T14:32:16.177Z,18.80
2019-04-11T14:35:06.225Z,16.43
2019-04-11T14:37:38.848Z,17.33
2019-04-11T14:40:26.478Z,17.63
2019-04-11T14:43:17.934Z,16.70
2019-04-11T14:45:53.331Z,15.57
2019-04-11T14:48:30.883Z,16.67
2019-04-11T14:51:02.885Z,16.70
2019-04-11T14:53:50.799Z,17.33
2019-04-11T14:56:27.175Z,18.37
2019-04-11T14:59:13.529Z,17.20
2019-04-11T15:01:45.365Z,17.43
2019-04-11T15:04:25.906Z,16.83
2019-04-11T15:07:00.465Z,15.60
2019-04-11T15:09:39.105Z,16.93
2019-04-11T15:12:24.270Z,17.40
2019-04-11T15:14:57.013Z,17.87
2019-04-11T15:17:32.433Z,16.57
2019-04-11T15:20:14.505Z,15.40
2019-04-11T15:22:46.225Z,15.87
2019-04-11T15:25:23.741Z,15.37
2019-04-11T15:27:55.468Z,16.33
2019-04-11T15:30:38.209Z,15.93
2019-04-11T15:33:26.873Z,16.07
2019-04-11T15:36:00.526Z,16.83
2019-04-11T15:38:47.441Z,14.00
2019-04-11T15:41:17.593Z,15.80
2019-04-11T15:44:06.913Z,15.40
2019-04-11T15:46:38.812Z,15.50
2019-04-11T15:49:32.311Z,15.93
2019-04-11T15:52:06.245Z,15.67
2019-04-11T15:54:39.455Z,15.67
2019-04-11T15:57:12.813Z,15.80
2019-04-11T16:00:02.985Z,16.20
2019-04-11T16:02:48.145Z,15.30
2019-04-11T16:05:22.577Z,16.37
2019-04-11T16:08:10.204Z,17.47
2019-04-11T16:10:45.573Z,16.57
2019-04-11T16:13:33.409Z,16.00
2019-04-11T16:16:11.334Z,15.48
2019-04-11T16:18:56.310Z,15.27
2019-04-11T16:21:44.837Z,15.13
2019-04-11T16:24:17.537Z,14.80
2019-04-11T16:26:55.901Z,16.77
2019-04-11T16:29:29.557Z,14.53
2019-04-11T16:32:01.333Z,15.83
2019-04-11T16:34:48.248Z,15.25
2019-04-11T16:37:17.579Z,14.90
2019-04-11T16:39:54.828Z,16.45
2019-04-11T16:42:26.553Z,15.60
2019-04-11T16:45:17.225Z,17.60
2019-04-11T16:47:51.385Z,15.50
2019-04-11T16:50:21.477Z,16.37
2019-04-11T16:52:51.605Z,14.75
2019-04-11T16:55:22.637Z,15.53
2019-04-11T16:57:52.722Z,15.23
2019-04-11T17:00:27.607Z,16.37
2019-04-11T17:02:57.697Z,16.15
2019-04-11T17:05:27.811Z,14.68
2019-04-11T17:08:15.705Z,15.50
2019-04-11T17:10:57.517Z,15.93
2019-04-11T17:13:32.508Z,15.93
2019-04-11T17:16:14.448Z,16.73
2019-04-11T17:18:46.437Z,16.70
2019-04-11T17:21:18.521Z,15.13
2019-04-11T17:23:49.542Z,15.32
2019-04-11T17:26:22.978Z,17.10
2019-04-11T17:28:54.914Z,15.70
2019-04-11T17:31:25.987Z,14.90
2019-04-11T17:33:59.205Z,15.68
2019-04-11T17:36:30.714Z,13.72
2019-04-11T17:39:06.778Z,15.40
2019-04-11T17:41:36.415Z,14.93
2019-04-11T17:44:06.494Z,15.13
2019-04-11T17:46:41.041Z,14.25
2019-04-11T17:49:11.089Z,15.10
2019-04-11T17:51:55.743Z,12.85
2019-04-11T17:54:24.683Z,15.53
2019-04-11T17:56:58.728Z,14.53
2019-04-11T17:59:29.397Z,14.73
2019-04-11T18:01:59.489Z,14.60
2019-04-11T18:04:31.491Z,15.38
2019-04-11T18:07:02.533Z,17.60
2019-04-11T18:09:32.645Z,15.95
2019-04-11T18:12:03.706Z,15.32
2019-04-11T18:14:34.745Z,14.15
2019-04-11T18:17:06.014Z,14.43
2019-04-11T18:19:37.005Z,16.25
2019-04-11T18:22:13.546Z,14.43
2019-04-11T18:24:50.638Z,14.65
2019-04-11T18:27:27.561Z,16.20
2019-04-11T18:29:57.657Z,13.62
2019-04-11T18:32:29.861Z,15.93
2019-04-11T18:35:02.412Z,16.10
2019-04-11T18:37:33.457Z,14.10
2019-04-11T18:40:10.933Z,15.00
2019-04-11T18:42:41.025Z,13.38
2019-04-11T18:45:15.073Z,14.83
2019-04-11T18:47:46.257Z,14.68
2019-04-11T18:50:18.265Z,13.93
2019-04-11T18:52:50.415Z,13.05
2019-04-11T18:55:21.621Z,13.15
2019-04-11T18:57:51.747Z,15.32
2019-04-11T19:00:24.101Z,15.10
2019-04-11T19:02:59.944Z,14.75
2019-04-11T19:05:30.654Z,13.50
2019-04-11T19:08:01.759Z,13.95
2019-04-11T19:10:31.921Z,14.20
2019-04-11T19:13:02.041Z,14.53
2019-04-11T19:15:33.085Z,16.40
2019-04-11T19:18:06.792Z,13.75
2019-04-11T19:20:36.141Z,14.40
2019-04-11T19:23:08.057Z,16.10
2019-04-11T19:25:44.061Z,13.85
2019-04-11T19:28:10.429Z,15.48
2019-04-11T19:30:42.380Z,16.42
2019-04-11T19:33:13.228Z,15.80
2019-04-11T19:35:44.289Z,15.85
2019-04-11T19:38:22.802Z,15.43
2019-04-11T19:40:55.894Z,15.35
2019-04-11T19:43:27.937Z,16.80
2019-04-11T19:45:58.738Z,14.73
2019-04-11T19:48:28.901Z,15.98
2019-04-11T19:50:59.545Z,14.40
2019-04-11T19:53:32.779Z,14.15
2019-04-11T19:56:06.018Z,13.65
2019-04-11T19:58:47.182Z,14.07
2019-04-11T20:01:22.849Z,15.50
2019-04-11T20:03:56.966Z,13.95
2019-04-11T20:06:27.086Z,14.98
2019-04-11T20:08:58.115Z,14.18
2019-04-11T20:11:30.000Z,13.50
2019-04-11T20:14:07.720Z,15.50
2019-04-11T20:16:42.740Z,15.70
2019-04-11T20:19:10.818Z,13.35
2019-04-11T20:21:41.815Z,12.28
2019-04-11T20:24:14.419Z,14.35
2019-04-11T20:26:44.652Z,11.83
2019-04-11T20:29:15.194Z,13.10
2019-04-11T20:31:45.275Z,12.85
2019-04-11T20:34:27.363Z,12.05
2019-04-11T20:36:50.970Z,11.18
2019-04-11T20:39:21.061Z,12.73
2019-04-11T20:41:54.460Z,11.38
2019-04-11T20:44:33.218Z,11.30
2019-04-11T20:47:03.335Z,11.25
2019-04-11T20:49:36.974Z,10.03
2019-04-11T20:52:07.045Z,11.12
2019-04-11T20:54:38.488Z,10.58
2019-04-11T20:57:25.862Z,9.88
2019-04-11T20:59:55.790Z,10.60
2019-04-11T21:02:29.017Z,10.38
2019-04-11T21:05:00.934Z,9.33
2019-04-11T21:07:31.962Z,10.85
2019-04-11T21:10:04.155Z,9.13
2019-04-11T21:12:37.023Z,9.73
2019-04-11T21:15:09.850Z,8.53
2019-04-11T21:17:42.137Z,9.93
2019-04-11T21:20:12.486Z,10.18
2019-04-11T21:22:43.601Z,8.90
2019-04-11T21:25:28.573Z,9.98
2019-04-11T21:27:59.995Z,9.78
2019-04-11T21:30:37.203Z,10.00
2019-04-11T21:33:14.067Z,9.25
2019-04-11T21:35:44.159Z,8.88
2019-04-11T21:38:14.237Z,8.88
2019-04-11T21:40:45.271Z,9.40
2019-04-11T21:43:15.362Z,9.33
2019-04-11T21:45:45.533Z,9.30
2019-04-11T21:48:15.654Z,9.53
2019-04-11T21:50:47.759Z,9.25
2019-04-11T21:53:18.751Z,8.63
2019-04-11T21:55:50.843Z,8.85
2019-04-11T21:58:21.870Z,8.73
2019-04-11T22:01:02.264Z,8.80
2019-04-11T22:03:32.350Z,9.35
2019-04-11T22:06:02.418Z,9.05
2019-04-11T22:08:34.468Z,8.25
2019-04-11T22:11:12.181Z,8.83
2019-04-11T22:13:42.273Z,8.35
2019-04-11T22:16:14.265Z,7.78
2019-04-11T22:18:44.490Z,8.18
2019-04-11T22:21:15.557Z,8.80
2019-04-11T22:23:49.183Z,7.17
2019-04-11T22:26:22.341Z,8.43
2019-04-11T22:28:59.109Z,8.70
2019-04-11T22:31:30.215Z,7.65
2019-04-11T22:34:04.606Z,8.80
2019-04-11T22:36:34.687Z,8.33
2019-04-11T22:39:09.354Z,9.18
2019-04-11T22:41:43.090Z,7.95
2019-04-11T22:44:15.121Z,7.75
2019-04-11T22:46:45.213Z,9.05
2019-04-11T22:49:15.284Z,8.50
2019-04-11T22:51:56.397Z,8.10
2019-04-11T22:54:27.444Z,8.18
2019-04-11T22:56:58.497Z,8.63
2019-04-11T22:59:31.650Z,8.78
2019-04-11T23:02:10.405Z,8.35
2019-04-11T23:04:42.493Z,8.00
2019-04-11T23:07:15.058Z,8.18
2019-04-11T23:09:48.590Z,7.40
2019-04-11T23:12:21.114Z,8.38
2019-04-11T23:14:53.214Z,7.95
2019-04-11T23:17:24.213Z,7.95
2019-04-11T23:19:54.490Z,8.15
2019-04-11T23:22:24.537Z,8.63
2019-04-11T23:24:55.601Z,8.50
2019-04-11T23:27:27.696Z,8.63
2019-04-11T23:29:57.805Z,7.85
2019-04-11T23:32:33.649Z,8.13
2019-04-11T23:35:05.470Z,7.78
2019-04-11T23:37:51.179Z,8.45
2019-04-11T23:40:23.934Z,8.13
2019-04-11T23:42:55.017Z,8.65
2019-04-11T23:45:26.979Z,8.10
2019-04-11T23:47:58.001Z,9.28
2019-04-11T23:50:28.079Z,8.15
2019-04-11T23:53:07.601Z,8.95
2019-04-11T23:55:37.693Z,8.30
2019-04-11T23:58:15.470Z,8.88
